Bremond, Texas
Current Conditions -  °F | °C
As of 11:35 PM on Friday 19 Dec 2014 (Local Time) from KLHB Reporting Station
Haze Haze  
Wind Chill: 48°   Ceiling: 600
Heat Index: 48°   Visibility: 5mi
Dew Point: 47°   Wind: 0mph
Humidity: 95%   Direction: NA
Pressure: 30.21"   Gusts: NA
Location:  31.17°N, 96.68°W
Report Text: KLHB 200535Z AUTO 00000KT 5SM BR OVC006 09/08 A3021 RMK AO2 T00900082
Loading
Personal Weather Stations






























Interactive Weather Map New forecast layout! Learn more

10-Day Weather Forecast

Advertisements
Track Severe Weather on mobile